Aeroporto :
LOGIN :

Iscrizione | Disclaimer

   EN    FR    IT 

 










Sommario :    VFR   VFR Marginale   IFR   IFR Intensivo   IFR Molto Intensivo
Visibilità : 
Base nubi : 
>= 8 km
>= 3000ft
5 / 8 km
1000 / 3000 ft
1500m / 5 km
500 / 1000 ft
800 / 1500m
200 / 500 ft
< 800m
< 200 ft
Simboli :   Temporali  Nebbia  Neve Forte  Precipitazioni Forti  Vento > 20 kt
SIGMETs :   Varie  Temporali  Ghiacco  Turbolenza  Onda orograficha  Ceneri Vulcaniche






- Altitudine del aeroporto : 1649 ft
- Codice IATA : HHN


EDFH - Frankfurt-Hahn Rhineland-Palatinate

ULTIMO METAR :
  • 231050Z 25026G39KT 220V280 7000 -RA SCT004 OVC006 08/07 Q1016

METARs OBSOLETI :
  • 231020Z 25026G39KT 220V280 8000 SCT004 OVC006 08/07 Q1016
  • 230950Z 25024G38KT 6000 -RA BKN004 OVC005 08/07 Q1016
  • 230920Z 25023G42KT 220V280 6000 -RA SCT003 OVC005 08/07 Q1016
  • 230850Z 25022G35KT 220V280 7000 -RA BKN004 08/07 Q1016
  • 230820Z 25021G37KT 8000 -RA BKN005 08/07 Q1017
  • 230750Z 24022G40KT 9000 -RA BKN007 08/07 Q1017

TAF TAF EDFH
Valido dal 23 a 06 ore il 24 a 06 ore UTC


230500Z 2306/2406 26015G30KT 9999 BKN010 BKN015
TEMPO 2306/2309 RA BKN003
BECMG 2306/2308 25025G35KT
TEMPO 2308/2316 27030G45KT
TEMPO 2309/2322 4000 RADZ BKN004
PROB30
TEMPO 2312/2315 27035G55KT
BECMG 2317/2320 28015G30KT
BECMG 2321/2401 27009KT
TEMPO 2402/2406 3500 RADZ BKN004



MetMap, La meteo Aeronautica in un colpo d'occhio ! - Copyright ORBIFLY Dicembre 2007 - Disclaimer

ORBIFLY MET'MAP TEAM :

Programmazione e sviluppo : Alexandra Zaïnal
Concezione : Baudouin d'Aumeries
Aiuto per la programmazione : Marc-Olivier Méhu
Supporto tecnico e logistico : Manuel Goepfert
Aiuto per la traduzione : Arnaldo La Scala

Contatto : metmap@orbifly.com




FONTI E CREDITI :

   NOAA